Time;durP1;ratioP1;P1;durP2;ratioP2;P2;SDS_P1;SDS_P2;PMS_P1;PMS_P2;Temp;Humidity;BMP_temperature;BMP_pressure;BME280_temperature;BME280_humidity;BME280_pressure;Samples;Min_cycle;Max_cycle;Signal;HPM_P1;HPM_P2
2021/03/21 00:01:04;;;;;;;2.70;2.37;;;;;;;5.39;100.00;101220.13;4989278;28;20280;-70
2021/03/21 00:03:32;;;;;;;2.90;2.70;;;;;;;5.41;100.00;101218.84;4990553;28;20235;-70
2021/03/21 00:05:58;;;;;;;3.43;2.70;;;;;;;5.41;100.00;101218.84;4989337;28;20718;-70
2021/03/21 00:08:28;;;;;;;2.80;2.60;;;;;;;5.40;100.00;101216.38;4974086;28;20189;-69
2021/03/21 00:10:55;;;;;;;2.73;2.53;;;;;;;5.47;100.00;101217.94;4989584;28;20292;-69
2021/03/21 00:13:26;;;;;;;3.17;2.87;;;;;;;5.41;100.00;101220.72;4990597;28;20256;-71
2021/03/21 00:15:54;;;;;;;3.10;2.80;;;;;;;5.49;100.00;101215.00;4989578;28;20634;-70
2021/03/21 00:18:21;;;;;;;3.07;2.77;;;;;;;5.56;100.00;101205.00;4989918;28;20214;-70
2021/03/21 00:20:51;;;;;;;2.70;2.50;;;;;;;5.55;100.00;101192.56;4973663;28;20221;-69
2021/03/21 00:23:17;;;;;;;3.00;2.70;;;;;;;5.62;100.00;101182.53;4956676;28;20193;-70
2021/03/21 00:25:42;;;;;;;2.80;2.60;;;;;;;5.45;100.00;101187.72;4973041;28;20235;-70
2021/03/21 00:28:11;;;;;;;2.90;2.50;;;;;;;5.56;100.00;101183.44;4989588;28;20189;-69
2021/03/21 00:30:41;;;;;;;2.90;2.70;;;;;;;5.47;100.00;101165.94;4988933;28;20233;-69
2021/03/21 00:33:09;;;;;;;3.20;2.90;;;;;;;5.45;100.00;101170.72;4989043;28;20192;-69
2021/03/21 00:35:34;;;;;;;3.50;3.20;;;;;;;5.51;100.00;101161.72;4973112;28;20217;-70
2021/03/21 00:38:04;;;;;;;3.90;3.50;;;;;;;5.62;100.00;101163.66;4989984;28;20679;-69
2021/03/21 00:40:29;;;;;;;3.57;3.27;;;;;;;5.53;100.00;101154.25;4957332;28;20224;-70
2021/03/21 00:42:58;;;;;;;3.20;2.93;;;;;;;5.53;100.00;101149.72;4940207;28;20185;-70
2021/03/21 00:45:24;;;;;;;4.10;3.70;;;;;;;5.64;100.00;101153.47;4973319;28;20229;-69
2021/03/21 00:47:50;;;;;;;3.73;3.43;;;;;;;5.67;100.00;101140.38;4973633;28;20221;-70
2021/03/21 00:50:32;;;;;;;3.73;3.43;;;;;;;5.60;100.00;101136.13;4957237;28;20220;-70
2021/03/21 00:52:59;;;;;;;4.00;3.60;;;;;;;5.61;100.00;101143.19;4956816;28;20225;-70
2021/03/21 00:55:25;;;;;;;3.57;3.27;;;;;;;5.60;100.00;101134.25;4988899;28;20217;-70
2021/03/21 00:57:50;;;;;;;4.07;3.40;;;;;;;5.61;100.00;101122.44;4973070;28;20189;-70
2021/03/21 01:00:18;;;;;;;3.90;3.27;;;;;;;5.61;100.00;101118.94;4990298;28;20204;-71
2021/03/21 01:02:48;;;;;;;4.50;3.77;;;;;;;5.64;100.00;101104.97;4988393;28;20213;-71
2021/03/21 01:05:35;;;;;;;3.97;3.57;;;;;;;5.69;100.00;101095.16;4973227;28;20177;-71
2021/03/21 01:08:01;;;;;;;3.63;3.33;;;;;;;5.63;100.00;101103.34;4989575;28;20617;-70
2021/03/21 01:10:31;;;;;;;3.83;3.53;;;;;;;5.60;100.00;101109.19;4972723;28;20237;-71
2021/03/21 01:12:57;;;;;;;4.20;3.80;;;;;;;5.65;100.00;101102.06;4957341;28;20193;-70
2021/03/21 01:15:27;;;;;;;4.33;3.60;;;;;;;5.70;100.00;101094.13;4972773;28;20229;-68
2021/03/21 01:17:55;;;;;;;3.33;3.03;;;;;;;5.58;100.00;101090.56;4973648;28;20192;-70
2021/03/21 01:20:22;;;;;;;3.50;3.20;;;;;;;5.73;100.00;101087.47;4972891;28;20205;-70
2021/03/21 01:22:48;;;;;;;3.20;3.00;;;;;;;5.63;100.00;101076.41;4972711;28;20181;-68
2021/03/21 01:25:22;;;;;;;3.37;2.83;;;;;;;5.63;100.00;101066.44;4973266;28;20609;-70
2021/03/21 01:27:51;;;;;;;3.60;3.30;;;;;;;5.68;100.00;101073.81;4989383;28;20185;-68
2021/03/21 01:30:17;;;;;;;3.50;3.20;;;;;;;5.80;100.00;101067.44;4988831;28;20296;-69
2021/03/21 01:32:42;;;;;;;5.20;3.20;;;;;;;5.79;100.00;101061.25;4988975;28;20351;-70
2021/03/21 01:35:08;;;;;;;3.67;3.37;;;;;;;5.73;100.00;101052.44;4972907;28;20185;-69
2021/03/21 01:37:34;;;;;;;3.40;3.10;;;;;;;5.85;100.00;101057.63;4975308;28;20194;-71
2021/03/21 01:40:00;;;;;;;3.60;3.30;;;;;;;5.85;100.00;101044.16;4977376;28;20235;-71
2021/03/21 01:42:25;;;;;;;3.63;3.10;;;;;;;5.86;100.00;101029.63;4960552;28;20225;-70
2021/03/21 01:44:54;;;;;;;4.00;3.70;;;;;;;5.91;100.00;101027.03;4964710;28;20193;-70
2021/03/21 01:47:38;;;;;;;4.13;3.77;;;;;;;5.95;100.00;101033.63;4997018;28;20221;-71
2021/03/21 01:50:24;;;;;;;5.53;4.90;;;;;;;5.84;100.00;101020.97;4997771;28;20235;-69
2021/03/21 01:52:50;;;;;;;6.77;5.47;;;;;;;5.88;100.00;101029.41;4980997;28;20233;-70
2021/03/21 01:55:17;;;;;;;6.40;5.80;;;;;;;5.86;100.00;101018.84;4994481;28;20193;-69
2021/03/21 01:57:43;;;;;;;7.20;6.50;;;;;;;5.92;100.00;101023.31;4977792;28;20220;-69
2021/03/21 02:00:11;;;;;;;8.10;7.30;;;;;;;6.03;100.00;101019.78;4969398;28;20205;-68
2021/03/21 02:02:37;;;;;;;12.13;9.83;;;;;;;5.99;100.00;101023.16;4992086;28;20254;-69
2021/03/21 02:05:04;;;;;;;11.20;9.47;;;;;;;6.14;100.00;101021.66;4976300;28;20185;-71
2021/03/21 02:08:00;;;;;;;12.47;10.20;;;;;;;6.15;100.00;101013.34;4960909;28;20635;-70
2021/03/21 02:10:40;;;;;;;12.27;10.90;;;;;;;6.13;100.00;101020.03;4972475;28;20202;-70
2021/03/21 02:13:11;;;;;;;12.77;11.13;;;;;;;6.02;100.00;101012.75;4957143;28;20182;-70
2021/03/21 02:15:59;;;;;;;12.80;11.33;;;;;;;5.89;100.00;101018.38;4973679;28;20272;-70
2021/03/21 02:19:04;;;;;;;13.13;11.20;;;;;;;6.02;100.00;101012.75;4943704;28;20607;-70
2021/03/21 02:21:54;;;;;;;13.07;10.33;;;;;;;6.07;100.00;101010.19;4959304;28;20225;-70
2021/03/21 02:24:41;;;;;;;11.90;9.53;;;;;;;5.89;100.00;100999.50;4941107;28;20190;-69
2021/03/21 02:27:36;;;;;;;11.17;9.87;;;;;;;6.07;100.00;101007.47;4981997;28;20225;-70
2021/03/21 02:30:09;;;;;;;11.87;9.37;;;;;;;6.00;100.00;100995.19;4988858;28;20349;-70
2021/03/21 02:33:03;;;;;;;9.63;8.23;;;;;;;6.01;100.00;100988.75;4990814;28;20307;-71
2021/03/21 02:35:42;;;;;;;9.43;7.33;;;;;;;6.01;100.00;100994.94;4991396;28;20225;-69
2021/03/21 02:38:27;;;;;;;9.27;7.83;;;;;;;6.20;100.00;100980.28;4960915;28;20213;-69
2021/03/21 02:40:59;;;;;;;9.27;7.93;;;;;;;6.07;100.00;100977.81;4975605;28;20275;-69
2021/03/21 02:43:30;;;;;;;8.20;7.30;;;;;;;6.12;100.00;100964.47;4990972;28;20557;-70
2021/03/21 02:45:58;;;;;;;8.33;6.77;;;;;;;6.12;100.00;100969.84;4991303;28;20299;-68
2021/03/21 02:48:27;;;;;;;9.87;7.13;;;;;;;6.05;100.00;100958.38;4958121;28;20257;-71
2021/03/21 02:51:09;;;;;;;9.00;6.97;;;;;;;6.12;100.00;100961.78;4975131;28;20335;-70
2021/03/21 02:53:46;;;;;;;9.70;7.17;;;;;;;6.09;100.00;100950.63;4975261;28;20208;-70
2021/03/21 02:56:17;;;;;;;7.97;6.77;;;;;;;6.23;100.00;100960.94;4974419;28;20323;-70
2021/03/21 02:58:49;;;;;;;7.87;6.00;;;;;;;6.13;100.00;100949.91;4975339;28;20220;-70
2021/03/21 03:01:23;;;;;;;8.73;6.47;;;;;;;6.13;100.00;100944.53;4974926;28;20232;-70
2021/03/21 03:03:50;;;;;;;6.73;5.60;;;;;;;6.18;100.00;100925.75;4974547;28;20185;-69
2021/03/21 03:06:25;;;;;;;6.73;5.17;;;;;;;6.20;100.00;100929.84;4974806;28;20240;-71
2021/03/21 03:08:58;;;;;;;6.20;5.20;;;;;;;6.18;100.00;100925.75;4975028;28;20202;-71
2021/03/21 03:11:58;;;;;;;5.47;4.50;;;;;;;6.16;100.00;100938.66;4958912;28;20315;-69
2021/03/21 03:14:30;;;;;;;6.73;4.67;;;;;;;6.26;100.00;100931.63;4949886;28;20213;-69
2021/03/21 03:17:12;;;;;;;6.13;5.00;;;;;;;6.21;100.00;100930.69;4943014;28;20249;-71
2021/03/21 03:20:06;;;;;;;5.97;5.37;;;;;;;6.27;100.00;100924.34;4975654;28;20241;-69
2021/03/21 03:23:10;;;;;;;6.00;4.97;;;;;;;6.30;100.00;100929.25;4971560;28;20222;-70
2021/03/21 03:25:52;;;;;;;5.40;4.43;;;;;;;6.37;100.00;100919.16;4931038;29;20231;-70
2021/03/21 03:28:41;;;;;;;5.67;4.73;;;;;;;6.24;100.00;100914.03;4897781;29;20219;-69
2021/03/21 03:31:26;;;;;;;4.93;4.33;;;;;;;6.39;100.00;100917.88;4960228;28;20244;-69
2021/03/21 03:33:57;;;;;;;6.23;4.57;;;;;;;6.41;100.00;100914.91;4970699;28;20191;-70
2021/03/21 03:36:23;;;;;;;6.50;4.83;;;;;;;6.46;100.00;100912.31;4955698;28;20233;-70
2021/03/21 03:38:51;;;;;;;5.10;4.47;;;;;;;6.30;100.00;100904.97;4950876;28;20210;-70
2021/03/21 03:41:29;;;;;;;4.60;4.10;;;;;;;6.53;100.00;100908.44;4990078;28;20717;-70
2021/03/21 03:44:20;;;;;;;5.60;4.70;;;;;;;6.45;100.00;100894.50;4991157;28;20313;-70
2021/03/21 03:46:54;;;;;;;5.57;4.00;;;;;;;6.41;100.00;100910.34;4992000;28;20253;-70
2021/03/21 03:49:28;;;;;;;5.07;3.83;;;;;;;6.53;100.00;100898.44;4974775;28;20215;-69
2021/03/21 03:52:05;;;;;;;4.73;3.57;;;;;;;6.47;100.00;100913.97;4957429;28;20225;-70
2021/03/21 03:54:33;;;;;;;4.90;4.37;;;;;;;6.56;100.00;100897.97;4990905;28;20279;-69
2021/03/21 03:57:14;;;;;;;3.97;3.23;;;;;;;6.57;100.00;100894.22;4973515;28;20844;-69
2021/03/21 04:00:00;;;;;;;3.73;3.10;;;;;;;6.50;100.00;100897.28;4991304;28;20243;-69
2021/03/21 04:02:48;;;;;;;4.57;3.10;;;;;;;6.45;100.00;100894.50;4958089;28;20232;-69
2021/03/21 04:05:22;;;;;;;3.27;2.70;;;;;;;6.39;100.00;100896.28;4973961;28;20178;-69
2021/03/21 04:07:57;;;;;;;3.17;2.50;;;;;;;6.48;100.00;100883.22;4974965;28;20244;-69
2021/03/21 04:10:27;;;;;;;2.17;1.97;;;;;;;6.30;100.00;100886.94;4957800;28;20216;-69
2021/03/21 04:13:07;;;;;;;2.50;1.73;;;;;;;6.37;100.00;100878.69;4958526;28;20185;-69
2021/03/21 04:15:41;;;;;;;2.63;2.23;;;;;;;6.29;100.00;100884.47;4973077;28;20225;-70
2021/03/21 04:18:23;;;;;;;4.63;2.10;;;;;;;6.37;100.00;100873.28;4958932;28;20223;-71
2021/03/21 04:20:58;;;;;;;5.57;2.20;;;;;;;6.39;100.00;100863.94;4973792;28;20288;-70
2021/03/21 04:23:42;;;;;;;4.37;2.60;;;;;;;6.35;100.00;100849.25;4974436;28;20593;-70
2021/03/21 04:26:11;;;;;;;5.90;2.70;;;;;;;6.15;100.00;100842.63;4989314;28;20280;-71
2021/03/21 04:28:42;;;;;;;5.70;3.10;;;;;;;6.35;100.00;100843.03;4973786;28;20209;-69
2021/03/21 04:31:12;;;;;;;6.63;2.80;;;;;;;6.13;100.00;100830.47;4970504;28;20435;-71
2021/03/21 04:33:45;;;;;;;5.30;2.53;;;;;;;6.33;100.00;100820.91;4954368;28;20727;-70
2021/03/21 04:36:14;;;;;;;5.87;3.13;;;;;;;6.18;100.00;100817.91;4959392;28;20241;-70
2021/03/21 04:38:44;;;;;;;7.17;3.10;;;;;;;6.33;100.00;100807.41;4957169;28;20217;-70
2021/03/21 04:41:14;;;;;;;7.27;3.00;;;;;;;6.26;100.00;100814.81;4954205;28;20222;-70
2021/03/21 04:43:51;;;;;;;7.23;3.07;;;;;;;6.12;100.00;100808.09;4953947;28;20195;-71
2021/03/21 04:46:27;;;;;;;8.00;3.40;;;;;;;6.08;100.00;100817.72;4954075;28;20218;-70
2021/03/21 04:48:53;;;;;;;6.27;3.10;;;;;;;6.12;100.00;100818.88;4939020;28;20205;-70
2021/03/21 04:51:21;;;;;;;4.03;2.70;;;;;;;6.01;100.00;100805.44;4953620;28;20253;-71
2021/03/21 04:53:55;;;;;;;7.80;2.80;;;;;;;6.12;100.00;100812.63;4953073;28;20272;-72
2021/03/21 04:56:26;;;;;;;4.73;2.67;;;;;;;5.90;100.00;100828.66;4973484;28;20218;-70
2021/03/21 04:59:27;;;;;;;6.93;3.17;;;;;;;6.02;100.00;100824.03;4970126;28;20750;-70
2021/03/21 05:02:03;;;;;;;3.20;2.70;;;;;;;6.17;100.00;100818.94;4960783;28;20240;-71
2021/03/21 05:04:32;;;;;;;4.17;2.23;;;;;;;6.11;100.00;100821.81;4976357;28;20182;-71
2021/03/21 05:07:24;;;;;;;6.87;2.40;;;;;;;6.06;100.00;100821.69;4962061;28;20213;-71
2021/03/21 05:09:54;;;;;;;5.70;2.67;;;;;;;6.00;100.00;100819.97;4961078;28;20217;-70
2021/03/21 05:12:32;;;;;;;7.23;2.80;;;;;;;6.10;100.00;100823.69;4977006;28;20231;-70
2021/03/21 05:15:11;;;;;;;3.80;2.60;;;;;;;6.17;100.00;100819.78;4981766;28;20186;-72
2021/03/21 05:17:49;;;;;;;3.37;2.70;;;;;;;6.16;100.00;100820.03;4976852;28;20349;-70
2021/03/21 05:20:29;;;;;;;4.63;2.30;;;;;;;6.05;100.00;100815.50;4991721;28;20639;-69
2021/03/21 05:23:05;;;;;;;5.53;2.30;;;;;;;5.99;100.00;100813.75;4989417;28;20710;-70
2021/03/21 05:25:42;;;;;;;5.63;2.47;;;;;;;6.05;100.00;100822.75;4973469;28;20221;-69
2021/03/21 05:28:21;;;;;;;6.90;2.70;;;;;;;5.97;100.00;100837.44;4957926;28;20772;-69
2021/03/21 05:30:46;;;;;;;4.20;2.30;;;;;;;5.89;100.00;100835.09;4953425;28;20234;-69
2021/03/21 05:33:14;;;;;;;7.00;2.53;;;;;;;5.85;100.00;100844.72;4953786;28;20257;-71
2021/03/21 05:35:40;;;;;;;5.00;2.60;;;;;;;5.80;100.00;100847.28;4970303;28;20257;-69
2021/03/21 05:38:24;;;;;;;6.93;2.67;;;;;;;5.74;100.00;100837.47;4954643;28;20309;-71
2021/03/21 05:41:07;;;;;;;13.50;3.17;;;;;;;5.80;100.00;100841.91;4953617;28;20249;-71
2021/03/21 05:44:05;;;;;;;7.33;2.73;;;;;;;5.89;100.00;100853.16;4985645;28;20186;-69
2021/03/21 05:46:49;;;;;;;7.30;2.77;;;;;;;5.93;100.00;100852.41;4964327;28;20213;-69
2021/03/21 05:49:35;;;;;;;8.70;3.20;;;;;;;5.85;100.00;100855.50;4990805;28;20546;-69
2021/03/21 05:52:13;;;;;;;7.07;2.90;;;;;;;5.79;100.00;100840.28;4988062;28;20458;-68
2021/03/21 05:55:18;;;;;;;9.50;2.77;;;;;;;5.79;100.00;100851.06;4959278;28;20196;-69
2021/03/21 05:58:16;;;;;;;11.47;2.33;;;;;;;5.61;100.00;100857.63;4991982;28;21003;-70
2021/03/21 06:01:09;;;;;;;10.10;2.40;;;;;;;5.68;100.00;100852.91;4994717;28;20311;-69
2021/03/21 06:03:46;;;;;;;15.80;2.87;;;;;;;5.61;100.00;100852.22;5002451;28;20592;-69
2021/03/21 06:06:35;;;;;;;14.13;3.10;;;;;;;5.40;100.00;100866.25;4995296;28;20702;-69
2021/03/21 06:09:36;;;;;;;13.57;2.93;;;;;;;5.32;100.00;100858.53;4976371;28;20280;-69
2021/03/21 06:12:14;;;;;;;16.40;2.90;;;;;;;5.27;100.00;100877.25;4990695;28;20224;-69
2021/03/21 06:15:12;;;;;;;14.17;3.33;;;;;;;5.27;100.00;100888.03;4992894;28;20207;-68
2021/03/21 06:17:48;;;;;;;17.20;3.17;;;;;;;5.20;100.00;100875.72;4975213;28;20237;-70
2021/03/21 06:20:13;;;;;;;13.40;2.67;;;;;;;5.25;100.00;100892.81;4989247;28;20322;-69
2021/03/21 06:22:50;;;;;;;18.57;3.20;;;;;;;5.26;100.00;100902.56;4988384;28;20624;-70
2021/03/21 06:25:40;;;;;;;19.40;3.63;;;;;;;5.31;100.00;100891.91;4975919;28;20203;-71
2021/03/21 06:28:40;;;;;;;19.60;3.97;;;;;;;5.12;100.00;100895.72;4992206;28;20615;-70
2021/03/21 06:31:20;;;;;;;18.20;3.33;;;;;;;5.30;100.00;100908.31;4958012;28;20234;-69
2021/03/21 06:34:10;;;;;;;19.97;3.70;;;;;;;5.32;100.00;100904.31;4973471;28;20174;-69
2021/03/21 06:37:07;;;;;;;19.40;3.80;;;;;;;5.20;100.00;100906.19;4957646;28;20314;-69
2021/03/21 06:39:48;;;;;;;22.53;3.97;;;;;;;5.36;100.00;100903.59;4957993;28;20226;-70
2021/03/21 06:42:55;;;;;;;20.97;3.57;;;;;;;5.25;100.00;100906.28;4956921;28;20228;-69
2021/03/21 06:45:42;;;;;;;19.40;3.93;;;;;;;5.27;100.00;100914.94;4984353;28;20249;-70
2021/03/21 06:48:20;;;;;;;19.37;3.87;;;;;;;5.46;100.00;100914.63;4973616;28;20174;-69
2021/03/21 06:50:55;;;;;;;19.43;3.33;;;;;;;5.42;100.00;100913.47;4971717;28;20229;-69
2021/03/21 06:53:35;;;;;;;18.40;3.90;;;;;;;5.28;100.00;100926.56;4955310;28;20619;-70
2021/03/21 06:56:18;;;;;;;21.73;4.10;;;;;;;5.34;100.00;100921.06;4970763;28;20284;-70
2021/03/21 06:58:54;;;;;;;19.07;4.47;;;;;;;5.26;100.00;100913.31;4983917;28;20284;-69
2021/03/21 07:01:20;;;;;;;23.80;4.70;;;;;;;5.47;100.00;100916.25;4975220;28;20221;-69
2021/03/21 07:04:13;;;;;;;30.23;5.60;;;;;;;5.42;100.00;100929.63;4974519;28;20667;-68
2021/03/21 07:07:00;;;;;;;22.27;4.20;;;;;;;5.46;100.00;100917.34;4971973;28;20292;-68
2021/03/21 07:09:49;;;;;;;24.77;4.80;;;;;;;5.45;100.00;100918.38;4972317;28;20286;-69
2021/03/21 07:12:26;;;;;;;23.30;4.23;;;;;;;5.59;100.00;100927.88;4972045;28;20724;-69
2021/03/21 07:15:29;;;;;;;23.20;4.40;;;;;;;5.63;100.00;100920.97;4957175;28;20198;-67
2021/03/21 07:17:54;;;;;;;19.67;4.40;;;;;;;5.57;100.00;100926.47;4972388;28;20297;-69
2021/03/21 07:20:49;;;;;;;19.23;4.23;;;;;;;5.70;100.00;100924.38;4971578;28;20310;-67
2021/03/21 07:23:36;;;;;;;25.50;4.40;;;;;;;5.83;100.00;100924.16;4939178;28;20975;-68
2021/03/21 07:26:27;;;;;;;17.57;4.20;;;;;;;5.80;100.00;100925.44;4979140;28;20225;-68
2021/03/21 07:28:53;;;;;;;26.50;4.03;;;;;;;6.03;100.00;100914.66;4988010;28;20187;-70
2021/03/21 07:31:43;;;;;;;21.90;4.40;;;;;;;6.06;100.00;100930.34;4970024;28;20237;-69
2021/03/21 07:34:09;;;;;;;21.73;4.47;;;;;;;6.08;100.00;100925.56;4972409;28;20241;-68
2021/03/21 07:37:03;;;;;;;24.37;4.63;;;;;;;5.98;100.00;100914.53;4972375;28;20732;-69
2021/03/21 07:39:52;;;;;;;24.90;5.20;;;;;;;6.06;100.00;100913.34;4951815;28;20708;-70
2021/03/21 07:42:22;;;;;;;19.43;4.20;;;;;;;6.11;100.00;100910.78;5002881;28;20233;-69
2021/03/21 07:45:18;;;;;;;21.13;4.57;;;;;;;6.10;100.00;100909.13;4971787;28;20194;-68
2021/03/21 07:48:38;;;;;;;19.03;3.67;;;;;;;6.17;100.00;100941.13;4993122;28;20687;-70
2021/03/21 07:52:01;;;;;;;25.67;4.37;;;;;;;6.22;100.00;100910.75;4982919;28;20229;-68
2021/03/21 07:54:51;;;;;;;22.73;5.03;;;;;;;6.43;100.00;100918.19;4951867;29;20216;-71
2021/03/21 07:57:20;;;;;;;20.90;4.53;;;;;;;6.39;100.00;100914.34;4917572;29;20247;-70
2021/03/21 07:59:46;;;;;;;19.97;5.07;;;;;;;6.32;100.00;100913.69;4970103;28;20729;-76
2021/03/21 08:02:13;;;;;;;19.90;4.67;;;;;;;6.46;100.00;100882.66;4960191;28;20229;-70
2021/03/21 08:04:48;;;;;;;25.40;5.40;;;;;;;6.44;100.00;100898.25;4977965;28;20192;-69
2021/03/21 08:07:29;;;;;;;25.13;5.40;;;;;;;6.57;98.72;100893.38;4993530;28;20233;-69
2021/03/21 08:09:55;;;;;;;28.17;5.27;;;;;;;6.82;100.00;100892.00;4961691;28;20204;-69
2021/03/21 08:12:21;;;;;;;28.50;5.03;;;;;;;6.95;99.76;100891.69;4976219;28;20237;-68
2021/03/21 08:15:08;;;;;;;26.00;5.37;;;;;;;6.73;98.66;100890.75;5011198;28;20180;-69
2021/03/21 08:17:42;;;;;;;22.10;5.23;;;;;;;6.59;98.64;100892.13;5010852;28;20231;-70
2021/03/21 08:20:23;;;;;;;24.17;5.13;;;;;;;6.71;100.00;100881.25;4976768;28;20700;-69
2021/03/21 08:22:53;;;;;;;24.63;5.07;;;;;;;6.74;99.69;100878.91;4960536;28;20251;-70
2021/03/21 08:25:30;;;;;;;21.97;4.73;;;;;;;6.70;99.98;100883.16;4976866;28;20647;-69
2021/03/21 08:27:56;;;;;;;22.70;4.87;;;;;;;7.09;99.18;100884.94;4978793;28;20260;-70
2021/03/21 08:30:26;;;;;;;20.37;5.50;;;;;;;6.84;98.27;100881.78;4999200;28;20285;-69
2021/03/21 08:32:54;;;;;;;24.37;4.47;;;;;;;6.87;98.01;100878.59;4989309;28;20914;-69
2021/03/21 08:35:24;;;;;;;27.33;5.20;;;;;;;6.88;98.17;100891.03;4970805;28;20200;-70
2021/03/21 08:37:51;;;;;;;28.63;5.90;;;;;;;6.91;98.94;100880.56;4982955;28;20734;-69
2021/03/21 08:40:30;;;;;;;30.57;5.50;;;;;;;6.86;97.98;100898.53;4978238;28;20217;-69
2021/03/21 08:43:12;;;;;;;29.33;5.60;;;;;;;6.84;96.83;100897.97;4971663;28;20723;-70
2021/03/21 08:45:38;;;;;;;28.23;6.20;;;;;;;7.04;96.62;100901.03;4995147;28;20220;-71
2021/03/21 08:48:17;;;;;;;27.47;5.43;;;;;;;7.09;97.68;100895.75;4996877;28;20234;-70
2021/03/21 08:50:49;;;;;;;30.60;5.60;;;;;;;7.16;96.94;100893.69;5017711;28;20233;-70
2021/03/21 08:53:29;;;;;;;24.37;5.23;;;;;;;7.26;95.50;100897.38;5006099;28;20227;-69
2021/03/21 08:56:15;;;;;;;23.67;5.23;;;;;;;7.10;95.08;100900.06;5024629;28;20759;-69
2021/03/21 08:58:41;;;;;;;26.77;6.37;;;;;;;6.95;97.92;100902.50;4992852;28;20243;-70
2021/03/21 09:01:20;;;;;;;31.30;5.53;;;;;;;7.21;95.37;100915.38;4975440;28;20220;-69
2021/03/21 09:03:45;;;;;;;31.53;5.77;;;;;;;7.17;94.20;100916.94;4957492;28;20193;-70
2021/03/21 09:06:28;;;;;;;26.40;5.70;;;;;;;7.14;94.56;100923.66;4959861;28;20251;-69
2021/03/21 09:08:56;;;;;;;30.83;6.20;;;;;;;7.26;93.87;100920.88;4973464;28;20205;-69
2021/03/21 09:11:34;;;;;;;22.07;5.47;;;;;;;7.25;93.33;100930.03;4989908;28;20233;-69
2021/03/21 09:14:04;;;;;;;28.03;5.90;;;;;;;7.17;94.75;100935.84;4988721;28;20212;-69
2021/03/21 09:16:29;;;;;;;25.07;5.90;;;;;;;7.24;93.92;100945.44;5004736;28;20231;-69
2021/03/21 09:19:11;;;;;;;27.00;5.10;;;;;;;7.48;93.90;100942.31;4989101;28;20587;-72
2021/03/21 09:21:42;;;;;;;28.20;5.63;;;;;;;7.61;92.33;100939.31;4986647;28;20233;-70
2021/03/21 09:24:11;;;;;;;29.63;5.10;;;;;;;7.68;91.10;100958.88;5004514;28;20196;-69
2021/03/21 09:26:42;;;;;;;22.53;4.97;;;;;;;7.65;91.87;100928.81;4976874;28;20266;-70
2021/03/21 09:29:19;;;;;;;31.80;6.47;;;;;;;7.73;92.59;100945.47;4961622;28;20187;-70
2021/03/21 09:31:46;;;;;;;17.60;5.17;;;;;;;7.51;93.59;100949.97;4990978;28;20216;-71
2021/03/21 09:34:22;;;;;;;27.63;5.90;;;;;;;7.62;93.67;100943.66;4976686;28;20875;-70
2021/03/21 09:37:02;;;;;;;22.60;5.50;;;;;;;7.90;92.36;100951.66;5009365;28;20228;-71
2021/03/21 09:39:39;;;;;;;34.57;7.40;;;;;;;7.67;89.95;100947.25;4992480;28;20330;-69
2021/03/21 09:42:10;;;;;;;26.97;5.20;;;;;;;7.79;90.59;100960.69;4960370;28;20433;-70
2021/03/21 09:44:41;;;;;;;26.23;5.70;;;;;;;7.96;90.51;100965.00;4992506;28;20251;-70
2021/03/21 09:47:44;;;;;;;26.27;5.87;;;;;;;8.11;89.73;100971.50;4975339;28;20217;-73
2021/03/21 09:50:31;;;;;;;24.97;5.30;;;;;;;8.25;90.20;100975.47;4989516;28;20240;-69
2021/03/21 09:53:31;;;;;;;26.83;6.00;;;;;;;7.96;88.32;100975.81;4987743;28;20190;-71
2021/03/21 09:56:02;;;;;;;23.57;4.67;;;;;;;8.00;88.11;100973.44;4968269;28;20233;-70
2021/03/21 09:59:08;;;;;;;29.67;6.00;;;;;;;7.93;89.23;100980.91;4966351;28;20221;-71
2021/03/21 10:01:48;;;;;;;22.27;4.63;;;;;;;7.96;89.10;100991.22;4979858;28;20216;-70
2021/03/21 10:04:30;;;;;;;24.43;5.40;;;;;;;8.21;88.00;101009.50;4987897;28;20199;-70
2021/03/21 10:06:59;;;;;;;23.43;5.23;;;;;;;8.15;86.89;100991.56;4974077;28;20223;-71
2021/03/21 10:09:26;;;;;;;21.10;4.83;;;;;;;8.11;87.61;100997.72;4963857;28;20196;-68
2021/03/21 10:11:52;;;;;;;25.73;4.93;;;;;;;8.29;85.95;100992.84;4977328;28;20233;-69
2021/03/21 10:14:24;;;;;;;25.27;5.70;;;;;;;8.43;86.31;100997.66;4981064;28;20276;-71
2021/03/21 10:16:50;;;;;;;26.23;6.00;;;;;;;8.30;85.21;101002.63;5006828;28;20213;-69
2021/03/21 10:19:56;;;;;;;24.27;4.77;;;;;;;8.27;85.87;100994.16;4955301;28;20267;-70
2021/03/21 10:22:21;;;;;;;24.20;5.03;;;;;;;8.55;84.86;100990.25;5001018;28;20243;-70
2021/03/21 10:25:09;;;;;;;23.13;5.37;;;;;;;8.19;84.94;100990.00;5026448;28;20769;-70
2021/03/21 10:27:43;;;;;;;25.83;5.70;;;;;;;8.67;84.01;100984.72;5009615;28;20217;-71
2021/03/21 10:30:21;;;;;;;26.93;5.87;;;;;;;8.89;84.68;100987.16;4973116;28;20209;-70
2021/03/21 10:32:50;;;;;;;23.73;5.07;;;;;;;8.89;83.04;100989.06;5009204;28;20677;-70
2021/03/21 10:35:21;;;;;;;24.73;8.30;;;;;;;8.83;81.35;100993.59;4976658;28;20198;-70
2021/03/21 10:37:46;;;;;;;20.70;5.50;;;;;;;8.49;82.07;100995.84;4971569;28;20239;-68
2021/03/21 10:40:36;;;;;;;26.07;6.23;;;;;;;8.77;83.13;101006.50;4994391;28;20237;-68
2021/03/21 10:43:17;;;;;;;21.73;5.50;;;;;;;8.61;81.56;101007.38;4964090;28;20582;-69
2021/03/21 10:45:45;;;;;;;23.97;7.17;;;;;;;8.43;82.68;101004.16;4993701;28;20223;-69
2021/03/21 10:48:19;;;;;;;22.27;4.37;;;;;;;9.21;81.54;100991.59;4995568;28;20197;-69
2021/03/21 10:50:57;;;;;;;20.23;5.00;;;;;;;9.20;81.48;101005.41;4991245;28;20227;-71
2021/03/21 10:53:30;;;;;;;21.77;5.07;;;;;;;9.16;80.51;101009.69;4993574;28;20238;-68
2021/03/21 10:56:20;;;;;;;21.90;5.63;;;;;;;9.06;80.20;101004.13;4986124;28;20216;-69
2021/03/21 10:58:45;;;;;;;18.87;4.80;;;;;;;8.70;79.41;101013.97;4998982;28;20232;-70
2021/03/21 11:01:17;;;;;;;51.60;23.30;;;;;;;8.58;81.30;101016.00;4996750;28;20243;-68
2021/03/21 11:03:58;;;;;;;23.13;5.47;;;;;;;8.75;81.82;101025.69;5017562;28;20177;-70
2021/03/21 11:06:26;;;;;;;21.87;4.70;;;;;;;9.05;79.22;101024.19;4959830;28;20221;-68
2021/03/21 11:08:51;;;;;;;27.60;5.23;;;;;;;8.82;80.17;101029.84;4961997;28;20173;-69
2021/03/21 11:11:26;;;;;;;32.50;5.87;;;;;;;8.91;80.49;101014.81;4957583;28;20225;-68
2021/03/21 11:13:51;;;;;;;23.50;5.30;;;;;;;9.11;79.00;101017.75;4960466;28;20275;-69
2021/03/21 11:16:23;;;;;;;23.13;5.17;;;;;;;9.04;78.75;101027.97;4973486;28;20774;-70
2021/03/21 11:19:05;;;;;;;22.47;5.00;;;;;;;8.76;79.88;101019.22;4996295;28;20750;-70
2021/03/21 11:21:32;;;;;;;20.87;5.80;;;;;;;9.02;78.34;101027.41;5001477;28;20353;-69
2021/03/21 11:24:03;;;;;;;21.10;5.07;;;;;;;9.23;77.15;101027.38;4981708;28;20177;-69
2021/03/21 11:26:35;;;;;;;23.63;5.73;;;;;;;9.02;79.99;101024.69;4966384;28;20213;-68
2021/03/21 11:29:04;;;;;;;19.43;4.63;;;;;;;8.99;79.54;101030.63;4949583;28;20659;-68
2021/03/21 11:31:34;;;;;;;21.63;5.03;;;;;;;9.22;78.17;101022.22;4990539;28;20213;-69
2021/03/21 11:34:19;;;;;;;21.00;5.60;;;;;;;9.35;77.51;101021.81;4962069;28;20295;-70
2021/03/21 11:36:45;;;;;;;20.80;4.40;;;;;;;8.95;79.30;101024.06;4969363;28;20621;-69
2021/03/21 11:39:35;;;;;;;24.73;4.67;;;;;;;9.39;78.40;101015.63;4977890;28;20213;-69
2021/03/21 11:42:08;;;;;;;21.90;5.03;;;;;;;9.54;76.31;101023.09;4997336;28;20221;-71
2021/03/21 11:44:33;;;;;;;18.67;4.47;;;;;;;9.30;79.38;101027.16;4969683;28;20190;-69
2021/03/21 11:47:30;;;;;;;22.53;5.23;;;;;;;9.45;79.64;101024.63;4960990;28;20229;-71
2021/03/21 11:49:57;;;;;;;17.07;5.23;;;;;;;8.98;77.58;101028.97;4952811;28;20592;-74
2021/03/21 11:52:23;;;;;;;39.57;19.67;;;;;;;9.10;78.68;101021.56;4960477;28;20243;-69
2021/03/21 11:54:48;;;;;;;20.50;5.07;;;;;;;9.49;79.10;101014.91;4960498;28;20188;-71
2021/03/21 11:57:23;;;;;;;21.83;7.33;;;;;;;10.04;76.32;101008.94;4995881;28;20244;-70
2021/03/21 12:00:00;;;;;;;153.80;95.47;;;;;;;10.30;73.60;101018.88;4987321;28;20220;-71
2021/03/21 12:02:48;;;;;;;37.10;19.13;;;;;;;10.33;71.86;101018.34;4992603;28;20217;-72
2021/03/21 12:05:20;;;;;;;15.50;4.67;;;;;;;10.22;69.47;101017.47;4993480;28;20202;-74